• Join FlightAware (Why Join?)
  • Login
  • US Flag 
03:21PM EDT


 

Airport Tracker/Info


-or-


 

Live Flight TrackerFlight Track Log ✈ AAL2137 ✈ 10-Apr-2013 ✈ KDFW - MGGT / GUA

Flight Track Log - Related Links

Times and Time Zones

All times are in EDT time to prevent confusion due to time zone crossing. See the AAL2137 flight status page for this flight to view local times or setup timezone preferences in your user account.

Time Position Orientation Groundspeed Altitude Reporting Facility
EDT Latitude Longitude Course Direction KTS MPH feet Rate Location/Type
07:22PM 32.9520 -97.0190 12° North 192 221 2,800  Level FlightAware
07:23PM 32.9740 -97.0120 15° North 214 246 3,500 1,800 Climbing FlightAware
07:23PM 33.0050 -97.0030 14° North 233 268 4,500 1,980 Climbing FlightAware
07:23PM 33.0220 -96.9980 14° North 243 280 5,000 1,620 Climbing FlightAware
07:24PM 33.0450 -96.9780 36° Northeast 275 316 5,600 1,800 Climbing FlightAware
07:24PM 33.0510 -96.9530 74° East 291 335 6,200 1,680 Climbing FlightAware
07:25PM 33.0480 -96.9030 94° East 321 369 6,900 1,920 Climbing FlightAware
07:25PM 33.0450 -96.8600 95° East 322 371 8,000 2,820 Climbing FlightAware
07:25PM 33.0430 -96.8050 92° East 324 373 9,500 1,800 Climbing FlightAware
07:26PM 33.0430 -96.7420 90° East 323 372 10,000 720 Climbing FlightAware
07:26PM 33.0370 -96.7080 102° East 315 362 10,200 1,320 Climbing FlightAware
07:27PM 33.0240 -96.6890 129° Southeast 302 348 10,800 3,360 Climbing FlightAware
07:27PM 32.9780 -96.6560 149° Southeast 275 316 13,300 3,660 Climbing FlightAware
07:28PM 32.9610 -96.6520 169° South 257 296 14,200 3,420 Climbing FlightAware
07:28PM 32.9320 -96.6560 187° South 246 283 15,600 2,400 Climbing FlightAware
07:29PM 32.8810 -96.6700 193° South 257 296 17,000 960 Climbing FlightAware
07:29PM 32.8340 -96.6810 191° South 281 323 17,000 660 Level FlightAware
07:30PM 32.7710 -96.6960 191° South 309 356 18,000 1,680 Climbing FlightAware
07:31PM 32.7220 -96.7090 193° South 318 366 19,300 2,280 Climbing FlightAware
07:32PM 32.6480 -96.7270 192° South 329 379 21,300 2,220 Climbing FlightAware
07:32PM 32.6060 -96.7370 191° South 333 383 22,300 1,920 Climbing FlightAware
07:33PM 32.5190 -96.7580 192° South 347 399 24,100 2,040 Climbing FlightAware
07:33PM 32.5097 -96.7607 194° South 348 400 24,300 1,800 Climbing FlightAware ADS-B
07:34PM 32.3970 -96.7880 192° South 358 412 26,400 1,740 Climbing FlightAware
07:35PM 32.3220 -96.8064 192° South 357 411 27,700 1,680 Climbing FlightAware ADS-B
07:36PM 32.2458 -96.8009 177° South 365 420 28,900 1,500 Climbing FlightAware ADS-B
07:36PM 32.2007 -96.7837 162° South 391 450 29,500 1,200 Climbing FlightAware ADS-B
07:37PM 32.1238 -96.7543 162° South 405 466 30,300 1,020 Climbing FlightAware ADS-B
07:37PM 32.1146 -96.7509 163° South 30,400 1,020 Climbing FlightAware ADS-B
07:37PM 32.0596 -96.7298 162° South 412 474 30,900 1,200 Climbing FlightAware ADS-B
07:38PM 32.0019 -96.7077 162° South 413 475 31,700 1,380 Climbing FlightAware ADS-B
07:38PM 31.9905 -96.7033 162° South 412 474 31,800 1,500 Climbing FlightAware ADS-B
07:39PM 31.9443 -96.6857 162° South 411 473 32,500 1,440 Climbing FlightAware ADS-B
07:39PM 31.9319 -96.6811 163° South 411 473 32,600 1,140 Climbing FlightAware ADS-B
07:39PM 31.8783 -96.6608 162° South 412 474 33,200 1,380 Climbing FlightAware ADS-B
07:39PM 31.8766 -96.6602 163° South 412 474 33,300 1,200 Climbing FlightAware ADS-B
07:40PM 31.8237 -96.6388 161° South 416 479 33,800 1,140 Climbing FlightAware ADS-B
07:40PM 31.8211 -96.6377 160° South 416 479 33,900 1,200 Climbing FlightAware ADS-B
07:40PM 31.7690 -96.6160 161° South 416 479 34,400 960 Climbing FlightAware ADS-B
07:40PM 31.7654 -96.6145 160° South 416 479 34,400 1,200 Level FlightAware ADS-B
07:41PM 31.7145 -96.5935 161° South 415 478 35,000 1,200 Climbing FlightAware ADS-B
07:41PM 31.7047 -96.5895 161° South 415 478 35,100 960 Climbing FlightAware ADS-B
07:41PM 31.6593 -96.5711 161° South 415 478 35,500 960 Climbing FlightAware ADS-B
07:41PM 31.6482 -96.5666 161° South 415 478 35,600 960 Climbing FlightAware ADS-B
07:42PM 31.6048 -96.5489 161° South 415 478 36,000 1,140 Climbing FlightAware ADS-B
07:42PM 31.5921 -96.5438 161° South 415 478 36,200 1,080 Climbing FlightAware ADS-B
07:42PM 31.5459 -96.5250 161° South 413 475 36,600 960 Climbing FlightAware ADS-B
07:42PM 31.5373 -96.5215 161° South 413 475 36,700 720 Climbing FlightAware ADS-B
07:43PM 31.4913 -96.5032 161° South 411 473 37,000 480 Climbing FlightAware ADS-B
07:43PM 31.4748 -96.4971 162° South 410 472 37,000  Level FlightAware ADS-B
07:43PM 31.4349 -96.4827 163° South 411 473 37,000  Level FlightAware ADS-B
07:43PM 31.4189 -96.4769 163° South 411 473 37,000  Level FlightAware ADS-B
07:44PM 31.3796 -96.4622 162° South 412 474 37,000  Level FlightAware ADS-B
07:44PM 31.3632 -96.4561 162° South 412 474 37,000  Level FlightAware ADS-B
07:44PM 31.3250 -96.4417 162° South 411 473 37,000  Level FlightAware ADS-B
07:44PM 31.3042 -96.4338 162° South 411 473 37,000  Level FlightAware ADS-B
07:45PM 31.2700 -96.4208 162° South 410 472 37,000  Level FlightAware ADS-B
07:45PM 31.2481 -96.4126 162° South 410 472 37,000  Level FlightAware ADS-B
07:45PM 31.2151 -96.4001 162° South 409 471 37,000  Level FlightAware ADS-B
07:45PM 31.1925 -96.3916 162° South 408 470 37,000  Level FlightAware ADS-B
07:46PM 31.1612 -96.3800 162° South 406 467 37,000  Level FlightAware ADS-B
07:46PM 31.1381 -96.3715 163° South 405 466 37,000  Level FlightAware ADS-B
07:46PM 31.1069 -96.3600 162° South 404 465 37,000  Level FlightAware ADS-B
07:46PM 31.0827 -96.3510 162° South 403 464 37,000  Level FlightAware ADS-B
07:47PM 31.0536 -96.3403 163° South 402 463 37,000  Level FlightAware ADS-B
07:47PM 31.0261 -96.3301 162° South 402 463 37,000  Level FlightAware ADS-B
07:47PM 31.0003 -96.3205 162° South 401 461 37,000  Level FlightAware ADS-B
07:47PM 30.9722 -96.3101 162° South 400 460 37,000  Level FlightAware ADS-B
07:48PM 30.9472 -96.3008 162° South 399 459 37,000  Level FlightAware ADS-B
07:48PM 30.9168 -96.2896 162° South 398 458 37,000  Level FlightAware ADS-B
07:48PM 30.8944 -96.2812 162° South 397 457 37,000  Level FlightAware ADS-B
07:49PM 30.8627 -96.2695 162° South 396 456 37,000  Level FlightAware ADS-B
07:49PM 30.8420 -96.2618 162° South 395 455 37,000  Level FlightAware ADS-B
07:49PM 30.8089 -96.2496 162° South 393 452 37,000  Level FlightAware ADS-B
07:49PM 30.7890 -96.2423 163° South 393 452 37,000  Level FlightAware ADS-B
07:50PM 30.7567 -96.2303 162° South 394 453 37,000  Level FlightAware ADS-B
07:50PM 30.7367 -96.2229 162° South 395 455 37,000  Level FlightAware ADS-B
07:50PM 30.7027 -96.2104 162° South 396 456 37,000  Level FlightAware ADS-B
07:50PM 30.6840 -96.2035 162° South 396 456 37,000  Level FlightAware ADS-B
07:51PM 30.6492 -96.1906 162° South 397 457 37,000  Level FlightAware ADS-B
07:51PM 30.6312 -96.1840 162° South 397 457 37,000  Level FlightAware ADS-B
07:51PM 30.5945 -96.1705 162° South 398 458 37,000  Level FlightAware ADS-B
07:51PM 30.5772 -96.1641 162° South 397 457 37,000  Level FlightAware ADS-B
07:52PM 30.5418 -96.1511 162° South 397 457 37,000  Level FlightAware ADS-B
07:52PM 30.5246 -96.1448 162° South 397 457 37,000  Level FlightAware ADS-B
07:52PM 30.4889 -96.1317 162° South 397 457 37,000  Level FlightAware ADS-B
07:52PM 30.4716 -96.1254 163° South 397 457 37,000  Level FlightAware ADS-B
07:53PM 30.4344 -96.1117 162° South 397 457 37,000  Level FlightAware ADS-B
07:53PM 30.4190 -96.1060 162° South 397 457 37,000  Level FlightAware ADS-B
07:53PM 30.3817 -96.0923 162° South 397 457 37,000  Level FlightAware ADS-B
07:53PM 30.3659 -96.0865 162° South 396 456 37,000  Level FlightAware ADS-B
07:54PM 30.3321 -96.0740 162° South 398 458 37,000  Level FlightAware ADS-B
07:54PM 30.3303 -96.0733 161° South 399 459 37,000  Level FlightAware ADS-B
07:54PM 30.3162 -96.0668 158° South 407 468 37,000  Level FlightAware ADS-B
07:54PM 30.3099 -96.0634 155° Southeast 411 473 37,000  Level FlightAware ADS-B
07:54PM 30.2979 -96.0562 153° Southeast 419 482 37,000  Level FlightAware ADS-B
07:54PM 30.2907 -96.0513 150° Southeast 424 488 37,000  Level FlightAware ADS-B
07:54PM 30.2807 -96.0437 147° Southeast 431 496 37,000  Level FlightAware ADS-B
07:54PM 30.2697 -96.0341 143° Southeast 441 507 37,000  Level FlightAware ADS-B
07:54PM 30.2629 -96.0276 140° Southeast 445 512 37,000  Level FlightAware ADS-B
07:54PM 30.2561 -96.0203 137° Southeast 452 520 37,000  Level FlightAware ADS-B
07:55PM 30.2165 -95.9734 134° Southeast 462 532 37,000  Level FlightAware ADS-B
07:55PM 30.2105 -95.9663 134° Southeast 462 532 37,000  Level FlightAware ADS-B
07:55PM 30.1714 -95.9196 134° Southeast 463 533 37,000  Level FlightAware ADS-B
07:55PM 30.1657 -95.9129 135° Southeast 463 533 37,000  Level FlightAware ADS-B
07:56PM 30.1266 -95.8665 134° Southeast 463 533 37,000  Level FlightAware ADS-B
07:56PM 30.1198 -95.8585 134° Southeast 463 533 37,000  Level FlightAware ADS-B
07:56PM 30.0811 -95.8127 134° Southeast 465 535 37,000  Level FlightAware ADS-B
07:56PM 30.0743 -95.8047 134° Southeast 465 535 37,000  Level FlightAware ADS-B
07:57PM 30.0360 -95.7595 134° Southeast 465 535 37,000  Level FlightAware ADS-B
07:57PM 30.0279 -95.7500 135° Southeast 465 535 37,000  Level FlightAware ADS-B
07:57PM 29.9899 -95.7053 134° Southeast 466 536 37,000  Level FlightAware ADS-B
07:57PM 29.9828 -95.6970 135° Southeast 467 537 37,000  Level FlightAware ADS-B
07:58PM 29.9443 -95.6520 135° Southeast 469 540 37,000  Level FlightAware ADS-B
07:58PM 29.9369 -95.6432 134° Southeast 470 541 37,000  Level FlightAware ADS-B
07:58PM 29.8985 -95.5982 135° Southeast 472 543 37,000  Level FlightAware ADS-B
07:58PM 29.8904 -95.5888 135° Southeast 472 543 37,000  Level FlightAware ADS-B
07:59PM 29.8521 -95.5439 135° Southeast 473 544 37,000  Level FlightAware ADS-B
07:59PM 29.8427 -95.5330 135° Southeast 473 544 37,000  Level FlightAware ADS-B
07:59PM 29.8056 -95.4895 135° Southeast 474 545 37,000  Level FlightAware ADS-B
07:59PM 29.7954 -95.4777 135° Southeast 474 545 37,000  Level FlightAware ADS-B
08:00PM 29.7593 -95.4354 135° Southeast 475 547 37,000  Level FlightAware ADS-B
08:00PM 29.7466 -95.4207 135° Southeast 475 547 37,000  Level FlightAware ADS-B
08:00PM 29.7108 -95.3790 135° Southeast 475 547 37,000  Level FlightAware ADS-B
08:00PM 29.7002 -95.3666 135° Southeast 475 547 37,000  Level FlightAware ADS-B
08:01PM 29.6636 -95.3240 135° Southeast 475 547 37,000  Level FlightAware ADS-B
08:01PM 29.6535 -95.3121 134° Southeast 475 547 37,000  Level FlightAware ADS-B
08:01PM 29.6173 -95.2701 135° Southeast 475 547 37,000  Level FlightAware ADS-B
08:02PM 29.6049 -95.2557 135° Southeast 476 548 37,000  Level FlightAware ADS-B
08:02PM 29.5706 -95.2158 135° Southeast 476 548 37,000  Level FlightAware ADS-B
08:02PM 29.5525 -95.1948 135° Southeast 476 548 37,000  Level FlightAware ADS-B
08:02PM 29.5237 -95.1614 135° Southeast 476 548 37,000  Level FlightAware ADS-B
08:03PM 29.5049 -95.1398 135° Southeast 476 548 37,000  Level FlightAware ADS-B
08:03PM 29.4767 -95.1072 135° Southeast 475 547 37,000  Level FlightAware ADS-B
08:03PM 29.4574 -95.0848 135° Southeast 475 547 37,000  Level FlightAware ADS-B
08:03PM 29.4281 -95.0509 135° Southeast 472 543 37,000  Level FlightAware ADS-B
08:04PM 29.3811 -94.9964 135° Southeast 470 541 37,000  Level FlightAware ADS-B
08:04PM 29.3464 -94.9564 135° Southeast 472 543 37,000  Level FlightAware ADS-B
08:04PM 29.3349 -94.9433 135° Southeast 469 540 37,000  Level FlightAware ADS-B
08:05PM 29.2991 -94.9022 135° Southeast 469 540 37,000  Level FlightAware ADS-B
08:05PM 29.2798 -94.8821 138° Southeast 464 534 37,000  Level FlightAware ADS-B
08:05PM 29.2780 -94.8804 141° Southeast 458 527 37,000  Level FlightAware ADS-B
08:05PM 29.2485 -94.8547 143° Southeast 444 511 37,000  Level FlightAware ADS-B
08:05PM 29.2352 -94.8448 147° Southeast 441 507 37,000  Level FlightAware ADS-B
08:06PM 29.1953 -94.8177 149° Southeast 435 501 37,000  Level FlightAware ADS-B
08:06PM 29.1832 -94.8094 149° Southeast 435 501 37,000  Level FlightAware ADS-B
08:06PM 29.1408 -94.7807 149° Southeast 435 501 37,000  Level FlightAware ADS-B
08:07PM 29.0881 -94.7450 149° Southeast 435 501 37,000  Level FlightAware ADS-B
08:07PM 29.0351 -94.7090 149° Southeast 435 501 37,000  Level FlightAware ADS-B
08:08PM 28.9819 -94.6730 149° Southeast 435 501 37,000  Level FlightAware ADS-B
08:08PM 28.9272 -94.6360 149° Southeast 436 502 37,000  Level FlightAware ADS-B
08:09PM 28.8725 -94.5990 149° Southeast 436 502 37,000  Level FlightAware ADS-B
08:09PM 28.8199 -94.5635 149° Southeast 437 503 37,000  Level FlightAware ADS-B
08:10PM 28.7664 -94.5275 149° Southeast 438 504 37,000  Level FlightAware ADS-B
08:10PM 28.7139 -94.4922 149° Southeast 439 505 37,000  Level FlightAware ADS-B
08:11PM 28.6468 -94.4471 149° Southeast 442 509 37,000  Level FlightAware ADS-B
08:12PM 28.5932 -94.4112 150° Southeast 442 509 37,000  Level FlightAware ADS-B
08:12PM 28.5392 -94.3749 149° Southeast 443 510 37,000  Level FlightAware ADS-B
08:13PM 28.4736 -94.3311 150° Southeast 445 512 37,000  Level FlightAware ADS-B
08:13PM 28.4112 -94.2896 150° Southeast 446 513 37,000  Level FlightAware ADS-B
08:14PM 28.3568 -94.2533 150° Southeast 446 513 37,000  Level FlightAware ADS-B
08:14PM 28.3034 -94.2176 150° Southeast 445 512 37,000  Level FlightAware ADS-B
08:15PM 28.2430 -94.1743 148° Southeast 455 524 37,000  Level FlightAware ADS-B
08:15PM 28.1865 -94.1215 141° Southeast 463 533 37,000  Level FlightAware ADS-B
08:16PM 28.1364 -94.0742 140° Southeast 462 532 37,000  Level FlightAware ADS-B
08:16PM 28.0867 -94.0275 140° Southeast 462 532 37,000  Level FlightAware ADS-B
08:17PM 28.0161 -93.9613 140° Southeast 461 531 37,000  Level FlightAware ADS-B
08:18PM 27.9617 -93.9105 140° Southeast 461 531 37,000  Level FlightAware ADS-B
08:18PM 27.9090 -93.8614 141° Southeast 461 531 37,000  Level FlightAware ADS-B
08:19PM 27.8590 -93.8148 141° Southeast 461 531 37,000  Level FlightAware ADS-B
08:19PM 27.8006 -93.7605 141° Southeast 461 531 37,000  Level FlightAware ADS-B
08:21PM 27.6700 -93.6390 141° Southeast 461 531 37,000  Level FlightAware ADS-B
08:21PM 27.6157 -93.5888 141° Southeast 461 531 37,000  Level FlightAware ADS-B
08:22PM 27.5370 -93.5161 141° Southeast 462 532 37,000  Level FlightAware ADS-B
08:23PM 27.4853 -93.4684 141° Southeast 464 534 37,000  Level FlightAware ADS-B
08:23PM 27.4054 -93.3945 141° Southeast 465 535 37,000  Level FlightAware ADS-B
08:24PM 27.3569 -93.3461 141° Southeast 465 535 37,000  Level Houston Center
08:25PM 27.2639 -93.2631 142° Southeast 468 539 37,000  Level Houston Center
08:27PM 27.1208 -93.1400 139° Southeast  Level FlightAware Approximate
08:34PM 26.4774 -92.6206 149° Southeast  Level FlightAware Approximate
08:35PM 26.3794 -92.5562 150° Southeast  Level FlightAware Approximate
08:36PM 26.2810 -92.4918 150° Southeast  Level FlightAware Approximate
08:37PM 26.1827 -92.4275 150° Southeast  Level FlightAware Approximate
08:38PM 26.0844 -92.3633 150° Southeast  Level FlightAware Approximate
08:39PM 25.9860 -92.2992 150° Southeast  Level FlightAware Approximate
08:40PM 25.8876 -92.2352 150° Southeast  Level FlightAware Approximate
08:41PM 25.7883 -92.1729 152° Southeast  Level FlightAware Approximate
08:42PM 25.6880 -92.1128 152° Southeast  Level FlightAware Approximate
08:43PM 25.5896 -92.0489 149° Southeast  Level FlightAware Approximate
08:44PM 25.4918 -91.9840 149° Southeast  Level FlightAware Approximate
08:45PM 25.3939 -91.9192 149° Southeast  Level FlightAware Approximate
08:46PM 25.2961 -91.8546 149° Southeast  Level FlightAware Approximate
08:47PM 25.1981 -91.7900 149° Southeast  Level FlightAware Approximate
08:48PM 25.1002 -91.7256 149° Southeast  Level FlightAware Approximate
08:49PM 25.0022 -91.6612 149° Southeast  Level FlightAware Approximate
08:50PM 24.9042 -91.5970 149° Southeast  Level FlightAware Approximate
08:51PM 24.8062 -91.5329 149° Southeast  Level FlightAware Approximate
08:52PM 24.7081 -91.4688 149° Southeast  Level FlightAware Approximate
08:53PM 24.6100 -91.4049 149° Southeast  Level FlightAware Approximate
08:54PM 24.5119 -91.3411 149° Southeast  Level FlightAware Approximate
08:55PM 24.4088 -91.2877 155° Southeast  Level FlightAware Approximate
08:56PM 24.3051 -91.2358 156° South  Level FlightAware Approximate
08:57PM 24.2010 -91.1848 156° South  Level FlightAware Approximate
08:58PM 24.0968 -91.1341 156° South  Level FlightAware Approximate
08:59PM 23.9926 -91.0836 156° South  Level FlightAware Approximate
09:00PM 23.8883 -91.0331 156° South  Level FlightAware Approximate
09:01PM 23.7841 -90.9827 156° South  Level FlightAware Approximate
09:02PM 23.6798 -90.9324 156° South  Level FlightAware Approximate
09:03PM 23.5755 -90.8822 156° South  Level FlightAware Approximate
09:04PM 23.4711 -90.8321 156° South  Level FlightAware Approximate
09:05PM 23.3668 -90.7820 156° South  Level FlightAware Approximate
09:06PM 23.2627 -90.7313 155° Southeast  Level FlightAware Approximate
09:07PM 23.1591 -90.6795 155° Southeast  Level FlightAware Approximate
09:08PM 23.0543 -90.6309 159° South  Level FlightAware Approximate
09:09PM 22.9479 -90.5866 159° South  Level FlightAware Approximate
09:10PM 22.8426 -90.5391 156° South  Level FlightAware Approximate
09:11PM 22.7383 -90.4892 156° South  Level FlightAware Approximate
09:12PM 22.6336 -90.4391 156° South  Level FlightAware Approximate
09:13PM 22.5289 -90.3892 156° South  Level FlightAware Approximate
09:14PM 22.4238 -90.3400 157° South  Level FlightAware Approximate
09:15PM 22.3188 -90.2909 157° South  Level FlightAware Approximate
09:16PM 22.2137 -90.2420 157° South  Level FlightAware Approximate
09:17PM 22.1086 -90.1931 157° South  Level FlightAware Approximate
09:18PM 22.0034 -90.1443 157° South  Level FlightAware Approximate
09:19PM 21.8983 -90.0955 157° South  Level FlightAware Approximate
09:20PM 21.7931 -90.0469 157° South  Level FlightAware Approximate
09:21PM 21.6880 -89.9983 157° South  Level FlightAware Approximate
09:22PM 21.5828 -89.9497 157° South  Level FlightAware Approximate
09:23PM 21.4782 -89.9013 157° South  Level FlightAware Approximate
09:24PM 21.3737 -89.8529 157° South  Level FlightAware Approximate
09:25PM 21.2692 -89.8046 157° South  Level FlightAware Approximate
09:26PM 21.1646 -89.7564 157° South  Level FlightAware Approximate
09:27PM 21.0600 -89.7083 157° South  Level FlightAware Approximate
09:28PM 20.9555 -89.6602 157° South  Level FlightAware Approximate
09:29PM 20.8438 -89.6429 176° South  Level FlightAware Approximate
09:30PM 20.7303 -89.6339 176° South  Level FlightAware Approximate
09:31PM 20.6168 -89.6250 176° South  Level FlightAware Approximate
09:32PM 20.5033 -89.6160 176° South  Level FlightAware Approximate
09:33PM 20.3898 -89.6071 176° South  Level FlightAware Approximate
09:34PM 20.2763 -89.5981 176° South  Level FlightAware Approximate
09:35PM 20.1628 -89.5892 176° South  Level FlightAware Approximate
09:36PM 20.0493 -89.5803 176° South  Level FlightAware Approximate
09:37PM 19.9358 -89.5714 176° South  Level FlightAware Approximate
09:38PM 19.8223 -89.5625 176° South  Level FlightAware Approximate
09:39PM 19.7088 -89.5537 176° South  Level FlightAware Approximate
09:40PM 19.5952 -89.5448 176° South  Level FlightAware Approximate
09:41PM 19.4817 -89.5360 176° South  Level FlightAware Approximate
09:42PM 19.3682 -89.5272 176° South  Level FlightAware Approximate
09:43PM 19.2547 -89.5183 176° South  Level FlightAware Approximate
09:44PM 19.1411 -89.5123 177° South  Level FlightAware Approximate
09:45PM 19.0274 -89.5070 177° South  Level FlightAware Approximate
09:46PM 18.9137 -89.5017 177° South  Level FlightAware Approximate
09:47PM 18.8000 -89.4964 177° South  Level FlightAware Approximate
09:48PM 18.6863 -89.4911 177° South  Level FlightAware Approximate
09:49PM 18.5726 -89.4858 177° South  Level FlightAware Approximate
09:50PM 18.4589 -89.4805 177° South  Level FlightAware Approximate
09:51PM 18.3452 -89.4752 177° South  Level FlightAware Approximate
09:52PM 18.2315 -89.4699 177° South  Level FlightAware Approximate
09:53PM 18.1178 -89.4647 177° South  Level FlightAware Approximate
09:54PM 18.0041 -89.4594 177° South  Level FlightAware Approximate
09:55PM 17.8904 -89.4542 177° South  Level FlightAware Approximate
09:56PM 17.7767 -89.4474 174° South  Level FlightAware Approximate
09:57PM 17.6636 -89.4348 174° South  Level FlightAware Approximate
09:58PM 17.5501 -89.4250 175° South  Level FlightAware Approximate
09:59PM 17.4367 -89.4155 175° South  Level FlightAware Approximate
10:00PM 17.3232 -89.4061 175° South  Level FlightAware Approximate
10:01PM 17.2097 -89.3966 175° South  Level FlightAware Approximate
10:02PM 17.0963 -89.3872 175° South  Level FlightAware Approximate
10:03PM 16.9828 -89.3789 176° South  Level FlightAware Approximate
10:04PM 16.8692 -89.3713 176° South  Level FlightAware Approximate
10:05PM 16.7625 -89.3917 213° Southwest  Level FlightAware Approximate
10:06PM 16.6658 -89.4542 210° Southwest  Level FlightAware Approximate
10:07PM 16.5675 -89.5141 210° Southwest  Level FlightAware Approximate
10:08PM 16.4692 -89.5740 210° Southwest  Level FlightAware Approximate
10:09PM 16.3709 -89.6337 210° Southwest  Level FlightAware Approximate
10:10PM 16.2706 -89.6897 206° Southwest  Level FlightAware Approximate
10:11PM 16.1720 -89.7487 211° Southwest  Level FlightAware Approximate
10:12PM 16.0761 -89.8123 214° Southwest  Level FlightAware Approximate
10:13PM 15.9813 -89.8779 210° Southwest  Level FlightAware Approximate
10:14PM 15.8828 -89.9371 210° Southwest  Level FlightAware Approximate
10:15PM 15.7842 -89.9962 210° Southwest  Level FlightAware Approximate
10:16PM 15.6839 -90.0520 207° Southwest  Level FlightAware Approximate
10:17PM 15.5826 -90.1060 207° Southwest  Level FlightAware Approximate
10:18PM 15.4824 -90.1618 213° Southwest  Level FlightAware Approximate
10:19PM 15.3867 -90.2256 213° Southwest  Level FlightAware Approximate
10:20PM 15.2907 -90.2891 211° Southwest  Level FlightAware Approximate
10:21PM 15.1933 -90.3500 211° Southwest  Level FlightAware Approximate
10:22PM 15.0951 -90.4096 210° Southwest  Level FlightAware Approximate
10:23PM 14.9961 -90.4667 180° South  Level FlightAware Approximate
10:24PM 14.8826 -90.4751 186° South  Level FlightAware Approximate
10:25PM 14.7707 -90.4931 198° South  Level FlightAware Approximate
10:26PM 14.6590 -90.5115 191° South  Level FlightAware Approximate
10:27PM 14.5833 -90.5275 180° South  Level Estimated
10:28PM 14.5833 -90.5275 180° South  Level Estimated
10:29PM 14.5833 -90.5275 180° South  Level Estimated